CDG4675 ZSQD-ZGGG
Flight info
| Callsign | CDG4675 |
|---|---|
| Flight time | N/A |
| Altitude | 34100 |
| Route | LATUX W108 MATNU/K0869S1040 W115 PINOT W11 PUD A599 NXD W131 AKDIM A470 DUBGO W134 ELNEX A599 PLT W19 OLPAB |
| Aircraft | B738/M-SDE2E3FGHIRWXY/LB1 |
Departure
| Time | N/A |
|---|---|
| Airport | Qingdao Jiaodong International Airport (ZSQD) |
Arrival
| Time | 2026-05-01 09:50 |
|---|---|
| Airport | Guangzhou Baiyun International Airport (ZGGG) |
| Time | Latitude | Longitude | Altitude | Speed | Heading |
|---|---|---|---|---|---|
| 2026-05-01 08:41 | 28.80034 | 118.44405 | 34056 ft | 441 kts | 233° |
| 2026-05-01 08:41 | 28.77943 | 118.41809 | 34055 ft | 443 kts | 233° |
| 2026-05-01 08:42 | 28.73759 | 118.36619 | 34052 ft | 443 kts | 233° |
| 2026-05-01 08:42 | 28.69425 | 118.31459 | 34039 ft | 451 kts | 224° |
| 2026-05-01 08:43 | 28.66664 | 118.29591 | 34061 ft | 464 kts | 210° |
| 2026-05-01 08:43 | 28.63641 | 118.28207 | 34044 ft | 467 kts | 206° |
| 2026-05-01 08:43 | 28.57581 | 118.25373 | 34047 ft | 464 kts | 211° |
| 2026-05-01 08:44 | 28.52009 | 118.21757 | 34048 ft | 456 kts | 220° |
| 2026-05-01 08:44 | 28.47088 | 118.17202 | 34051 ft | 451 kts | 229° |
| 2026-05-01 08:45 | 28.42623 | 118.12169 | 34054 ft | 449 kts | 232° |
| 2026-05-01 08:45 | 28.38369 | 118.07016 | 34057 ft | 447 kts | 233° |
| 2026-05-01 08:46 | 28.34123 | 118.01797 | 34062 ft | 449 kts | 233° |
| 2026-05-01 08:46 | 28.29779 | 117.96594 | 34066 ft | 449 kts | 233° |
| 2026-05-01 08:47 | 28.27978 | 117.93810 | 34068 ft | 437 kts | 248° |
| 2026-05-01 08:47 | 28.26837 | 117.90579 | 34075 ft | 432 kts | 256° |
| 2026-05-01 08:47 | 28.24958 | 117.84092 | 34060 ft | 434 kts | 254° |
| 2026-05-01 08:48 | 28.22518 | 117.77794 | 34061 ft | 439 kts | 247° |
| 2026-05-01 08:48 | 28.19256 | 117.71860 | 34066 ft | 447 kts | 239° |
| 2026-05-01 08:49 | 28.15345 | 117.66357 | 34071 ft | 449 kts | 234° |
| 2026-05-01 08:49 | 28.11124 | 117.61105 | 34078 ft | 449 kts | 232° |
| 2026-05-01 08:50 | 28.06794 | 117.55965 | 34079 ft | 450 kts | 232° |
| 2026-05-01 08:50 | 28.02410 | 117.50833 | 34072 ft | 449 kts | 232° |
| 2026-05-01 08:51 | 27.98055 | 117.45747 | 34081 ft | 451 kts | 231° |
| 2026-05-01 08:51 | 27.93651 | 117.40609 | 34088 ft | 449 kts | 231° |
| 2026-05-01 08:52 | 27.89325 | 117.35565 | 34088 ft | 450 kts | 231° |
| 2026-05-01 08:52 | 27.84870 | 117.30372 | 34091 ft | 451 kts | 231° |
| 2026-05-01 08:53 | 27.80502 | 117.25288 | 34096 ft | 450 kts | 231° |
| 2026-05-01 08:53 | 27.76104 | 117.20174 | 34081 ft | 451 kts | 231° |
| 2026-05-01 08:54 | 27.71713 | 117.15073 | 34069 ft | 451 kts | 231° |
| 2026-05-01 08:54 | 27.67347 | 117.10010 | 34064 ft | 450 kts | 231° |
| 2026-05-01 08:55 | 27.62935 | 117.04900 | 34069 ft | 450 kts | 231° |
| 2026-05-01 08:55 | 27.58627 | 116.99916 | 34072 ft | 449 kts | 231° |
| 2026-05-01 08:56 | 27.54221 | 116.94823 | 34077 ft | 451 kts | 231° |
| 2026-05-01 08:56 | 27.49858 | 116.89778 | 34073 ft | 449 kts | 231° |
| 2026-05-01 08:57 | 27.45496 | 116.84679 | 34058 ft | 450 kts | 231° |
| 2026-05-01 08:57 | 27.41145 | 116.79576 | 34047 ft | 450 kts | 231° |
| 2026-05-01 08:58 | 27.36803 | 116.74494 | 34047 ft | 451 kts | 231° |
| 2026-05-01 08:58 | 27.32444 | 116.69404 | 34047 ft | 449 kts | 231° |
| 2026-05-01 08:59 | 27.28064 | 116.64297 | 34051 ft | 450 kts | 231° |
| 2026-05-01 08:59 | 27.23708 | 116.59226 | 34044 ft | 450 kts | 231° |
| 2026-05-01 09:00 | 27.19358 | 116.54156 | 34047 ft | 449 kts | 231° |
| 2026-05-01 09:00 | 27.15083 | 116.49013 | 34048 ft | 448 kts | 232° |
| 2026-05-01 09:01 | 27.10832 | 116.43836 | 34058 ft | 448 kts | 232° |
| 2026-05-01 09:01 | 27.06592 | 116.38677 | 34063 ft | 448 kts | 232° |
| 2026-05-01 09:02 | 27.02340 | 116.33524 | 34064 ft | 449 kts | 231° |
| 2026-05-01 09:02 | 26.98068 | 116.28363 | 34068 ft | 449 kts | 231° |
| 2026-05-01 09:03 | 26.93784 | 116.23199 | 34067 ft | 449 kts | 231° |
| 2026-05-01 09:03 | 26.89533 | 116.18070 | 34067 ft | 448 kts | 232° |
| 2026-05-01 09:04 | 26.85243 | 116.12846 | 34064 ft | 448 kts | 232° |
| 2026-05-01 09:04 | 26.81010 | 116.07686 | 34064 ft | 449 kts | 232° |
| 2026-05-01 09:05 | 26.76791 | 116.02549 | 34059 ft | 448 kts | 232° |
| 2026-05-01 09:05 | 26.72537 | 115.97382 | 34058 ft | 448 kts | 231° |
| 2026-05-01 09:06 | 26.68290 | 115.92235 | 34059 ft | 448 kts | 231° |
| 2026-05-01 09:06 | 26.64057 | 115.87110 | 34058 ft | 448 kts | 231° |
| 2026-05-01 09:07 | 26.59781 | 115.81938 | 34062 ft | 450 kts | 231° |
| 2026-05-01 09:07 | 26.55509 | 115.76778 | 34053 ft | 448 kts | 231° |
| 2026-05-01 09:08 | 26.51249 | 115.71641 | 34060 ft | 448 kts | 231° |
| 2026-05-01 09:08 | 26.47015 | 115.66538 | 34058 ft | 448 kts | 231° |
| 2026-05-01 09:09 | 26.42747 | 115.61401 | 34059 ft | 447 kts | 231° |
| 2026-05-01 09:09 | 26.38523 | 115.56323 | 34058 ft | 447 kts | 231° |
| 2026-05-01 09:10 | 26.34247 | 115.51186 | 34059 ft | 449 kts | 231° |
| 2026-05-01 09:10 | 26.29990 | 115.46081 | 34054 ft | 448 kts | 231° |
| 2026-05-01 09:11 | 26.25734 | 115.40984 | 34047 ft | 448 kts | 231° |
| 2026-05-01 09:11 | 26.21452 | 115.35862 | 34036 ft | 448 kts | 231° |
| 2026-05-01 09:12 | 26.17157 | 115.30729 | 34020 ft | 447 kts | 231° |
| 2026-05-01 09:12 | 26.12907 | 115.25656 | 34018 ft | 448 kts | 231° |
| 2026-05-01 09:13 | 26.08634 | 115.20561 | 34015 ft | 447 kts | 231° |
| 2026-05-01 09:13 | 26.04380 | 115.15494 | 34018 ft | 447 kts | 231° |
| 2026-05-01 09:14 | 26.00109 | 115.10413 | 34022 ft | 448 kts | 231° |
| 2026-05-01 09:14 | 25.95838 | 115.05340 | 34030 ft | 447 kts | 231° |
| 2026-05-01 09:15 | 25.91565 | 115.00267 | 34036 ft | 446 kts | 231° |
| 2026-05-01 09:15 | 25.87278 | 114.95185 | 34041 ft | 445 kts | 231° |
| 2026-05-01 09:16 | 25.82893 | 114.90235 | 34035 ft | 449 kts | 225° |
| 2026-05-01 09:16 | 25.80360 | 114.88176 | 34036 ft | 455 kts | 214° |
| 2026-05-01 09:17 | 25.74301 | 114.85690 | 34031 ft | 466 kts | 199° |
| 2026-05-01 09:17 | 25.64767 | 114.83329 | 34026 ft | 467 kts | 196° |
| 2026-05-01 09:18 | 25.55150 | 114.81077 | 33982 ft | 464 kts | 196° |
| 2026-05-01 09:19 | 25.48912 | 114.79579 | 33387 ft | 445 kts | 197° |
| 2026-05-01 09:19 | 25.45915 | 114.78851 | 33101 ft | 438 kts | 197° |
| 2026-05-01 09:19 | 25.42932 | 114.78119 | 32817 ft | 439 kts | 197° |
| 2026-05-01 09:20 | 25.36873 | 114.76618 | 32305 ft | 445 kts | 196° |
| 2026-05-01 09:20 | 25.30800 | 114.75115 | 31786 ft | 443 kts | 196° |
| 2026-05-01 09:21 | 25.24722 | 114.73612 | 31266 ft | 445 kts | 196° |
| 2026-05-01 09:21 | 25.21677 | 114.72858 | 31006 ft | 445 kts | 196° |
| 2026-05-01 09:21 | 25.15617 | 114.71365 | 30490 ft | 445 kts | 195° |
| 2026-05-01 09:22 | 25.09553 | 114.69873 | 29974 ft | 446 kts | 195° |
| 2026-05-01 09:22 | 25.03458 | 114.68375 | 29455 ft | 447 kts | 195° |
| 2026-05-01 09:23 | 25.00430 | 114.67632 | 29199 ft | 448 kts | 195° |
| 2026-05-01 09:23 | 24.94284 | 114.66123 | 28685 ft | 450 kts | 195° |
| 2026-05-01 09:24 | 24.88147 | 114.64621 | 28182 ft | 449 kts | 195° |
| 2026-05-01 09:24 | 24.85055 | 114.63864 | 27928 ft | 448 kts | 195° |
| 2026-05-01 09:24 | 24.78913 | 114.62357 | 27425 ft | 450 kts | 195° |
| 2026-05-01 09:25 | 24.72811 | 114.60757 | 26926 ft | 450 kts | 199° |
| 2026-05-01 09:25 | 24.66954 | 114.58235 | 26428 ft | 449 kts | 208° |
| 2026-05-01 09:26 | 24.64200 | 114.56663 | 26181 ft | 449 kts | 211° |
| 2026-05-01 09:26 | 24.58724 | 114.53233 | 25681 ft | 449 kts | 212° |
| 2026-05-01 09:26 | 24.56018 | 114.51487 | 25573 ft | 448 kts | 212° |
| 2026-05-01 09:27 | 24.50607 | 114.48000 | 25578 ft | 452 kts | 212° |
| 2026-05-01 09:27 | 24.47862 | 114.46242 | 25538 ft | 452 kts | 212° |
| 2026-05-01 09:27 | 24.45141 | 114.44508 | 25292 ft | 452 kts | 212° |
| 2026-05-01 09:28 | 24.42405 | 114.42773 | 25043 ft | 450 kts | 212° |
| 2026-05-01 09:28 | 24.39707 | 114.41067 | 24697 ft | 448 kts | 212° |
| 2026-05-01 09:28 | 24.36989 | 114.39356 | 24275 ft | 446 kts | 212° |
| 2026-05-01 09:28 | 24.34287 | 114.37658 | 24081 ft | 444 kts | 212° |
| 2026-05-01 09:29 | 24.28929 | 114.34301 | 23731 ft | 437 kts | 211° |
| 2026-05-01 09:29 | 24.26265 | 114.32634 | 23282 ft | 436 kts | 211° |
| 2026-05-01 09:30 | 24.21032 | 114.29363 | 22375 ft | 428 kts | 211° |
| 2026-05-01 09:30 | 24.18441 | 114.27743 | 21913 ft | 424 kts | 211° |
| 2026-05-01 09:30 | 24.13714 | 114.23972 | 20857 ft | 417 kts | 226° |
| 2026-05-01 09:31 | 24.11809 | 114.21600 | 20265 ft | 412 kts | 234° |
| 2026-05-01 09:31 | 24.10217 | 114.19003 | 19683 ft | 408 kts | 240° |
| 2026-05-01 09:31 | 24.07993 | 114.13398 | 18560 ft | 400 kts | 255° |
| 2026-05-01 09:32 | 24.07438 | 114.10429 | 18006 ft | 397 kts | 261° |
| 2026-05-01 09:32 | 24.06839 | 114.04479 | 16888 ft | 390 kts | 265° |
| 2026-05-01 09:32 | 24.06631 | 114.01531 | 16327 ft | 387 kts | 265° |
| 2026-05-01 09:33 | 24.06433 | 113.98656 | 15665 ft | 375 kts | 265° |
| 2026-05-01 09:33 | 24.06231 | 113.95813 | 14999 ft | 373 kts | 265° |
| 2026-05-01 09:33 | 24.05803 | 113.90196 | 13575 ft | 368 kts | 264° |
| 2026-05-01 09:34 | 24.05581 | 113.87423 | 12941 ft | 365 kts | 264° |
| 2026-05-01 09:34 | 24.05360 | 113.84679 | 12343 ft | 362 kts | 264° |
| 2026-05-01 09:34 | 24.04916 | 113.79287 | 11749 ft | 352 kts | 264° |
| 2026-05-01 09:35 | 24.04692 | 113.76592 | 11503 ft | 354 kts | 264° |
| 2026-05-01 09:35 | 24.04262 | 113.71410 | 10981 ft | 319 kts | 264° |
| 2026-05-01 09:35 | 24.04067 | 113.69086 | 10745 ft | 299 kts | 264° |
| 2026-05-01 09:36 | 24.03882 | 113.66869 | 10502 ft | 282 kts | 264° |
| 2026-05-01 09:36 | 24.03707 | 113.64772 | 10288 ft | 276 kts | 264° |
| 2026-05-01 09:36 | 24.03530 | 113.62650 | 10051 ft | 279 kts | 264° |
| 2026-05-01 09:36 | 24.03353 | 113.60525 | 9801 ft | 277 kts | 264° |
| 2026-05-01 09:37 | 24.03178 | 113.58439 | 9558 ft | 273 kts | 263° |
| 2026-05-01 09:37 | 24.02836 | 113.54382 | 9080 ft | 265 kts | 263° |
| 2026-05-01 09:37 | 24.02666 | 113.52369 | 8844 ft | 266 kts | 263° |
| 2026-05-01 09:38 | 24.02304 | 113.48328 | 8367 ft | 266 kts | 259° |
| 2026-05-01 09:38 | 24.01801 | 113.46396 | 8121 ft | 264 kts | 241° |
| 2026-05-01 09:38 | 24.00614 | 113.44883 | 7885 ft | 261 kts | 214° |
| 2026-05-01 09:39 | 23.97189 | 113.43554 | 7413 ft | 257 kts | 194° |
| 2026-05-01 09:39 | 23.95464 | 113.43096 | 7169 ft | 252 kts | 194° |
| 2026-05-01 09:39 | 23.93778 | 113.42638 | 6978 ft | 245 kts | 195° |
| 2026-05-01 09:40 | 23.92150 | 113.42191 | 6968 ft | 231 kts | 195° |
| 2026-05-01 09:40 | 23.89102 | 113.41351 | 6978 ft | 214 kts | 195° |
| 2026-05-01 09:40 | 23.87704 | 113.40971 | 6889 ft | 207 kts | 194° |
| 2026-05-01 09:41 | 23.86309 | 113.40594 | 6648 ft | 205 kts | 194° |
| 2026-05-01 09:41 | 23.83556 | 113.39844 | 6537 ft | 201 kts | 194° |
| 2026-05-01 09:41 | 23.82192 | 113.39465 | 6536 ft | 202 kts | 194° |
| 2026-05-01 09:42 | 23.80781 | 113.39068 | 6545 ft | 213 kts | 195° |
| 2026-05-01 09:42 | 23.79336 | 113.38673 | 6543 ft | 213 kts | 195° |
| 2026-05-01 09:42 | 23.76448 | 113.37805 | 6337 ft | 217 kts | 193° |
| 2026-05-01 09:43 | 23.73446 | 113.37094 | 5626 ft | 222 kts | 194° |
| 2026-05-01 09:43 | 23.71932 | 113.36693 | 5272 ft | 223 kts | 194° |
| 2026-05-01 09:43 | 23.70423 | 113.36281 | 4897 ft | 222 kts | 195° |
| 2026-05-01 09:44 | 23.67454 | 113.35468 | 4179 ft | 215 kts | 194° |
| 2026-05-01 09:44 | 23.66020 | 113.35077 | 3900 ft | 208 kts | 194° |
| 2026-05-01 09:44 | 23.64647 | 113.34698 | 3926 ft | 196 kts | 194° |
| 2026-05-01 09:45 | 23.63354 | 113.34332 | 3928 ft | 180 kts | 194° |
| 2026-05-01 09:45 | 23.60858 | 113.33650 | 3920 ft | 189 kts | 193° |
| 2026-05-01 09:45 | 23.59576 | 113.33305 | 3727 ft | 191 kts | 193° |
| 2026-05-01 09:46 | 23.58279 | 113.32956 | 3428 ft | 188 kts | 193° |
| 2026-05-01 09:46 | 23.57022 | 113.32618 | 3200 ft | 186 kts | 193° |
| 2026-05-01 09:46 | 23.55750 | 113.32275 | 2990 ft | 187 kts | 193° |
| 2026-05-01 09:46 | 23.54474 | 113.31932 | 2717 ft | 187 kts | 193° |
| 2026-05-01 09:47 | 23.53201 | 113.31590 | 2484 ft | 186 kts | 193° |
| 2026-05-01 09:47 | 23.51948 | 113.31254 | 2234 ft | 184 kts | 193° |
| 2026-05-01 09:47 | 23.50725 | 113.30925 | 1965 ft | 178 kts | 193° |
| 2026-05-01 09:47 | 23.49567 | 113.30614 | 1749 ft | 161 kts | 193° |
| 2026-05-01 09:48 | 23.48502 | 113.30328 | 1585 ft | 153 kts | 193° |
| 2026-05-01 09:48 | 23.47478 | 113.30053 | 1349 ft | 155 kts | 193° |
| 2026-05-01 09:48 | 23.46440 | 113.29775 | 1133 ft | 151 kts | 193° |
| 2026-05-01 09:48 | 23.45401 | 113.29495 | 931 ft | 152 kts | 193° |
| 2026-05-01 09:49 | 23.44371 | 113.29217 | 731 ft | 151 kts | 193° |
| 2026-05-01 09:49 | 23.43346 | 113.28942 | 533 ft | 151 kts | 193° |
| 2026-05-01 09:49 | 23.42327 | 113.28670 | 340 ft | 150 kts | 193° |
| 2026-05-01 09:49 | 23.41320 | 113.28401 | 151 ft | 149 kts | 193° |
| 2026-05-01 09:50 | 23.40348 | 113.28142 | 53 ft | 120 kts | 193° |
| 2026-05-01 09:50 | 23.39757 | 113.27986 | 53 ft | 56 kts | 194° |
| 2026-05-01 09:50 | 23.39535 | 113.27978 | 53 ft | 23 kts | 168° |
| 2026-05-01 09:50 | 23.39392 | 113.28011 | 53 ft | 18 kts | 169° |
| 2026-05-01 09:51 | 23.39282 | 113.28024 | 53 ft | 13 kts | 183° |
| 2026-05-01 09:51 | 23.39195 | 113.28005 | 53 ft | 12 kts | 194° |
| 2026-05-01 09:51 | 23.39102 | 113.27980 | 53 ft | 14 kts | 194° |
| 2026-05-01 09:51 | 23.38996 | 113.27952 | 53 ft | 16 kts | 193° |
| 2026-05-01 09:52 | 23.38879 | 113.27920 | 53 ft | 18 kts | 193° |
| 2026-05-01 09:52 | 23.38748 | 113.27885 | 53 ft | 20 kts | 194° |
| 2026-05-01 09:52 | 23.38629 | 113.27853 | 53 ft | 21 kts | 193° |
| 2026-05-01 09:52 | 23.38508 | 113.27827 | 53 ft | 17 kts | 193° |
| 2026-05-01 09:53 | 23.38383 | 113.27795 | 53 ft | 19 kts | 193° |
| 2026-05-01 09:53 | 23.38245 | 113.27757 | 53 ft | 19 kts | 193° |
| 2026-05-01 09:53 | 23.38135 | 113.27729 | 53 ft | 12 kts | 194° |
| 2026-05-01 09:53 | 23.38050 | 113.27721 | 53 ft | 12 kts | 147° |
| 2026-05-01 09:54 | 23.38016 | 113.27811 | 53 ft | 14 kts | 104° |
| 2026-05-01 09:54 | 23.37990 | 113.27923 | 53 ft | 16 kts | 104° |
| 2026-05-01 09:54 | 23.37963 | 113.28043 | 53 ft | 12 kts | 104° |
| 2026-05-01 09:54 | 23.37903 | 113.28101 | 53 ft | 13 kts | 188° |
| 2026-05-01 09:55 | 23.37803 | 113.28075 | 53 ft | 15 kts | 193° |
| 2026-05-01 09:55 | 23.37690 | 113.28045 | 53 ft | 17 kts | 193° |
| 2026-05-01 09:55 | 23.37561 | 113.28011 | 53 ft | 19 kts | 194° |
| 2026-05-01 09:55 | 23.37418 | 113.27972 | 53 ft | 21 kts | 194° |
| 2026-05-01 09:56 | 23.37269 | 113.27931 | 53 ft | 22 kts | 193° |
| 2026-05-01 09:56 | 23.37115 | 113.27890 | 53 ft | 22 kts | 194° |
| 2026-05-01 09:56 | 23.36975 | 113.27877 | 53 ft | 19 kts | 165° |
| 2026-05-01 09:56 | 23.36881 | 113.27988 | 53 ft | 21 kts | 107° |
| 2026-05-01 09:57 | 23.36842 | 113.28153 | 53 ft | 23 kts | 104° |
| 2026-05-01 09:57 | 23.36829 | 113.28328 | 53 ft | 21 kts | 71° |
| 2026-05-01 09:57 | 23.36944 | 113.28429 | 53 ft | 22 kts | 17° |
| 2026-05-01 09:57 | 23.37101 | 113.28471 | 53 ft | 24 kts | 14° |
| 2026-05-01 09:58 | 23.37274 | 113.28518 | 53 ft | 26 kts | 13° |
| 2026-05-01 09:58 | 23.37455 | 113.28567 | 53 ft | 25 kts | 14° |
| 2026-05-01 09:58 | 23.37580 | 113.28601 | 53 ft | 15 kts | 14° |
| 2026-05-01 09:58 | 23.37690 | 113.28632 | 53 ft | 17 kts | 13° |
| 2026-05-01 09:59 | 23.37812 | 113.28664 | 53 ft | 18 kts | 14° |
| 2026-05-01 09:59 | 23.37929 | 113.28696 | 53 ft | 17 kts | 13° |
| 2026-05-01 09:59 | 23.38052 | 113.28728 | 53 ft | 17 kts | 14° |
| 2026-05-01 09:59 | 23.38174 | 113.28761 | 53 ft | 18 kts | 14° |
| 2026-05-01 10:00 | 23.38302 | 113.28796 | 53 ft | 19 kts | 14° |
| 2026-05-01 10:00 | 23.38398 | 113.28822 | 53 ft | 13 kts | 13° |
| 2026-05-01 10:00 | 23.38452 | 113.28858 | 53 ft | 9 kts | 86° |
| 2026-05-01 10:00 | 23.38439 | 113.28937 | 53 ft | 11 kts | 103° |
| 2026-05-01 10:01 | 23.38418 | 113.29028 | 53 ft | 8 kts | 104° |
| 2026-05-01 10:01 | 23.38407 | 113.29075 | 53 ft | 1 kts | 104° |
| 2026-05-01 10:01 | 23.38402 | 113.29098 | 53 ft | 2 kts | 104° |
| 2026-05-01 10:01 | 23.38397 | 113.29130 | 53 ft | 5 kts | 91° |
| 2026-05-01 10:02 | 23.38409 | 113.29173 | 53 ft | 7 kts | 66° |
| 2026-05-01 10:02 | 23.38431 | 113.29227 | 53 ft | 8 kts | 65° |
| 2026-05-01 10:02 | 23.38453 | 113.29280 | 54 ft | 6 kts | 65° |
| 2026-05-01 10:02 | 23.38474 | 113.29331 | 54 ft | 8 kts | 66° |
| 2026-05-01 10:03 | 23.38495 | 113.29382 | 53 ft | 7 kts | 66° |
| 2026-05-01 10:03 | 23.38527 | 113.29421 | 54 ft | 5 kts | 19° |
| 2026-05-01 10:03 | 23.38557 | 113.29424 | 54 ft | 4 kts | 5° |
| 2026-05-01 10:03 | 23.38582 | 113.29426 | 54 ft | 3 kts | 0° |
| 2026-05-01 10:04 | 23.38596 | 113.29426 | 54 ft | 1 kts | 360° |
| 2026-05-01 10:04 | 23.38597 | 113.29426 | 54 ft | 0 kts | 360° |